Oski — WYD3004 — position and weather

sailwx.info

Track history (hours):
 
Tides and Currents Weather Stations Pressure Air Temp Water Temp Dewpoint Dewpoint Depression Visibility Wind Speed Wind Dir Waves Ship Positions

Oski

Owner: BLUE & GOLD FLEET, SAN FRANCISCO, CA. More information available from US FCC via Universal Licensing System and Coast Guard Vessel Documentation Center.

Last reported at 2016-Sep-27 00:33 UTC. Time now 2016-Sep-27 05:25 UTC.
Position N 37°49' W 122°24'.

Length 24 m; draft 2 m.

Type: Passenger vessel. MMSI: 366985320.

Date/timePositionNaut miles runAvg speedWind from/ knotsBaromVisibWave heightAir tempDewpointWater temp
2016-Sep-27 00:33N 37°49' W 122°24'1 0.2
2016-Sep-26 20:32N 37°49' W 122°25'0 0.0
2016-Sep-26 19:33N 37°49' W 122°25'0 0.0
2016-Sep-26 15:31N 37°49' W 122°25'0 0.0
2016-Sep-26 13:31N 37°49' W 122°25'0 0.0
2016-Sep-26 11:32N 37°49' W 122°25'0 0.0
2016-Sep-26 08:27N 37°49' W 122°25'0 0.0
2016-Sep-26 02:31N 37°49' W 122°25'0 0.0
2016-Sep-26 01:31N 37°49' W 122°25'0 0.0
2016-Sep-26 00:34N 37°49' W 122°25'0 0.0
2016-Sep-25 21:34N 37°49' W 122°25'0 0.0
2016-Sep-25 17:29N 37°49' W 122°25'0 0.0
2016-Sep-25 16:32N 37°49' W 122°25'0 0.0
2016-Sep-25 15:27N 37°49' W 122°25'0 0.0
2016-Sep-25 14:28N 37°49' W 122°25'0 0.0
2016-Sep-25 12:32N 37°49' W 122°25'0 0.0
2016-Sep-25 11:32N 37°49' W 122°25'0 0.0
2016-Sep-25 10:25N 37°49' W 122°25'0 0.0
2016-Sep-25 09:23N 37°49' W 122°25'0 0.0
2016-Sep-25 07:33N 37°49' W 122°25'0 0.0
2016-Sep-25 04:33N 37°49' W 122°25'0 0.0
2016-Sep-25 00:30N 37°49' W 122°25'1 0.3
2016-Sep-24 22:33N 37°49' W 122°24'1 0.5
2016-Sep-24 21:33N 37°49' W 122°25'0 0.0
2016-Sep-24 19:33N 37°49' W 122°25'0 0.0
2016-Sep-24 18:31N 37°49' W 122°25'0 0.0
2016-Sep-24 17:30N 37°49' W 122°25'0 0.0
2016-Sep-24 16:33N 37°49' W 122°25'0 0.0
2016-Sep-24 14:32N 37°49' W 122°25'0 0.0
2016-Sep-24 12:32N 37°49' W 122°25'0 0.0
2016-Sep-24 10:31N 37°49' W 122°25'0 0.0
2016-Sep-24 09:32N 37°49' W 122°25'0 0.0
2016-Sep-24 03:27N 37°49' W 122°25'0 0.0
2016-Sep-24 02:31N 37°49' W 122°25'5 5.7
2016-Sep-24 01:34N 37°47' W 122°18'5 5.5
2016-Sep-24 00:33N 37°49' W 122°25'0 0.0
2016-Sep-23 19:33N 37°49' W 122°25'0 0.0
2016-Sep-23 17:33N 37°49' W 122°25'0 0.0
2016-Sep-23 16:33N 37°49' W 122°25'0 0.0
2016-Sep-23 15:33N 37°49' W 122°25'0 0.0
2016-Sep-23 13:33N 37°49' W 122°25'0 0.0
2016-Sep-23 09:33N 37°49' W 122°25'0 0.0
2016-Sep-23 06:33N 37°49' W 122°25'0 0.0
2016-Sep-23 04:33N 37°49' W 122°25'0 0.0
2016-Sep-23 03:33N 37°49' W 122°25'0 0.0
2016-Sep-23 02:33N 37°49' W 122°25'0 0.0
2016-Sep-23 01:33N 37°49' W 122°25'0 0.2
2016-Sep-23 00:33N 37°49' W 122°25'1 1.1
2016-Sep-22 23:33N 37°50' W 122°25'1 0.4
2016-Sep-22 20:33N 37°49' W 122°25'0 0.0
2016-Sep-22 12:30N 37°49' W 122°25'0 0.0
2016-Sep-22 04:31N 37°49' W 122°25'0 0.0
2016-Sep-22 03:27N 37°49' W 122°25'0 0.0
2016-Sep-22 00:33N 37°49' W 122°25'0 0.2
2016-Sep-21 23:33N 37°49' W 122°25'2 2.5
2016-Sep-21 22:34N 37°49' W 122°28'4 1.3
2016-Sep-21 19:34N 37°48' W 122°23'1 0.4
2016-Sep-21 16:33N 37°49' W 122°25'0 0.0
2016-Sep-21 09:33N 37°49' W 122°25'0 0.0
2016-Sep-21 08:33N 37°49' W 122°25'0 0.0
2016-Sep-21 05:33N 37°49' W 122°25'0 0.0
2016-Sep-21 03:33N 37°49' W 122°25'0 0.0
2016-Sep-21 02:33N 37°49' W 122°25'0 0.0
2016-Sep-20 17:33N 37°49' W 122°25'0 0.0
2016-Sep-20 14:33N 37°49' W 122°25'0 0.0
2016-Sep-20 13:33N 37°49' W 122°25'0 0.0
2016-Sep-20 10:33N 37°49' W 122°25'0 0.0
2016-Sep-20 08:33N 37°49' W 122°25'0 0.0
2016-Sep-20 07:33N 37°49' W 122°25'0 0.0
2016-Sep-20 06:33N 37°49' W 122°25'1 0.3
2016-Sep-20 02:34N 37°49' W 122°23'2 0.7
2016-Sep-19 23:33N 37°50' W 122°26'2 0.4
2016-Sep-19 19:32N 37°49' W 122°25'0 0.0
2016-Sep-19 18:31N 37°49' W 122°25'0 0.0
2016-Sep-19 16:30N 37°49' W 122°25'0 0.0
2016-Sep-19 14:28N 37°49' W 122°25'0 0.0
2016-Sep-19 13:28N 37°49' W 122°25'0 0.0
2016-Sep-19 12:21N 37°49' W 122°25'0 0.0
2016-Sep-19 11:33N 37°49' W 122°25'0 0.0
2016-Sep-19 09:32N 37°49' W 122°25'0 0.0
2016-Sep-19 07:28N 37°49' W 122°25'0 0.0
2016-Sep-19 06:31N 37°49' W 122°25'0 0.0
2016-Sep-19 03:30N 37°49' W 122°25'0 0.0
2016-Sep-19 02:32N 37°49' W 122°25'4 2.1
2016-Sep-19 00:34N 37°48' W 122°19'4 0.8
2016-Sep-18 19:29N 37°49' W 122°25'0 0.0
2016-Sep-18 15:30N 37°49' W 122°25'0 0.0
2016-Sep-18 14:32N 37°49' W 122°25'0 0.0
2016-Sep-18 10:33N 37°49' W 122°25'0 0.0
2016-Sep-18 09:33N 37°49' W 122°25'0 0.0
2016-Sep-18 02:32N 37°49' W 122°25'0 0.0
2016-Sep-18 01:31N 37°49' W 122°25'0 0.0
2016-Sep-18 00:30N 37°49' W 122°25'0 0.0
2016-Sep-17 22:26N 37°49' W 122°25'0 0.0
2016-Sep-17 21:28N 37°49' W 122°25'0 0.0
2016-Sep-17 20:32N 37°49' W 122°25'0 0.0
2016-Sep-17 19:16N 37°49' W 122°25'0 0.0
2016-Sep-17 13:29N 37°49' W 122°25'0 0.0
2016-Sep-17 12:30N 37°49' W 122°25'0 0.0
2016-Sep-17 10:26N 37°49' W 122°25'0 0.0
2016-Sep-17 09:31N 37°49' W 122°25'0 0.0
2016-Sep-17 08:32N 37°49' W 122°25'0 0.0
2016-Sep-17 07:29N 37°49' W 122°25'0 0.0
2016-Sep-17 05:33N 37°49' W 122°25'0 0.0
2016-Sep-17 04:32N 37°49' W 122°25'  
Track history (hours):
 
Tides and Currents Weather Stations Pressure Air Temp Water Temp Dewpoint Dewpoint Depression Visibility Wind Speed Wind Dir Waves Ship Positions

Oski

Owner: BLUE & GOLD FLEET, SAN FRANCISCO, CA. More information available from US FCC via Universal Licensing System and Coast Guard Vessel Documentation Center.

Last reported at 2016-Sep-27 00:33 UTC. Time now 2016-Sep-27 05:25 UTC.
Position N 37°49' W 122°24'.

Length 24 m; draft 2 m.

Type: Passenger vessel. MMSI: 366985320.

Date/timePositionNaut miles runAvg speedWind from/ knotsBaromVisibWave heightAir tempDewpointWater temp
2016-Sep-27 00:33N 37°49' W 122°24'1 0.2
2016-Sep-26 20:32N 37°49' W 122°25'0 0.0
2016-Sep-26 19:33N 37°49' W 122°25'0 0.0
2016-Sep-26 15:31N 37°49' W 122°25'0 0.0
2016-Sep-26 13:31N 37°49' W 122°25'0 0.0
2016-Sep-26 11:32N 37°49' W 122°25'0 0.0
2016-Sep-26 08:27N 37°49' W 122°25'0 0.0
2016-Sep-26 02:31N 37°49' W 122°25'0 0.0
2016-Sep-26 01:31N 37°49' W 122°25'0 0.0
2016-Sep-26 00:34N 37°49' W 122°25'0 0.0
2016-Sep-25 21:34N 37°49' W 122°25'0 0.0
2016-Sep-25 17:29N 37°49' W 122°25'0 0.0
2016-Sep-25 16:32N 37°49' W 122°25'0 0.0
2016-Sep-25 15:27N 37°49' W 122°25'0 0.0
2016-Sep-25 14:28N 37°49' W 122°25'0 0.0
2016-Sep-25 12:32N 37°49' W 122°25'0 0.0
2016-Sep-25 11:32N 37°49' W 122°25'0 0.0
2016-Sep-25 10:25N 37°49' W 122°25'0 0.0
2016-Sep-25 09:23N 37°49' W 122°25'0 0.0
2016-Sep-25 07:33N 37°49' W 122°25'0 0.0
2016-Sep-25 04:33N 37°49' W 122°25'0 0.0
2016-Sep-25 00:30N 37°49' W 122°25'1 0.3
2016-Sep-24 22:33N 37°49' W 122°24'1 0.5
2016-Sep-24 21:33N 37°49' W 122°25'0 0.0
2016-Sep-24 19:33N 37°49' W 122°25'0 0.0
2016-Sep-24 18:31N 37°49' W 122°25'0 0.0
2016-Sep-24 17:30N 37°49' W 122°25'0 0.0
2016-Sep-24 16:33N 37°49' W 122°25'0 0.0
2016-Sep-24 14:32N 37°49' W 122°25'0 0.0
2016-Sep-24 12:32N 37°49' W 122°25'0 0.0
2016-Sep-24 10:31N 37°49' W 122°25'0 0.0
2016-Sep-24 09:32N 37°49' W 122°25'0 0.0
2016-Sep-24 03:27N 37°49' W 122°25'0 0.0
2016-Sep-24 02:31N 37°49' W 122°25'5 5.7
2016-Sep-24 01:34N 37°47' W 122°18'5 5.5
2016-Sep-24 00:33N 37°49' W 122°25'0 0.0
2016-Sep-23 19:33N 37°49' W 122°25'0 0.0
2016-Sep-23 17:33N 37°49' W 122°25'0 0.0
2016-Sep-23 16:33N 37°49' W 122°25'0 0.0
2016-Sep-23 15:33N 37°49' W 122°25'0 0.0
2016-Sep-23 13:33N 37°49' W 122°25'0 0.0
2016-Sep-23 09:33N 37°49' W 122°25'0 0.0
2016-Sep-23 06:33N 37°49' W 122°25'0 0.0
2016-Sep-23 04:33N 37°49' W 122°25'0 0.0
2016-Sep-23 03:33N 37°49' W 122°25'0 0.0
2016-Sep-23 02:33N 37°49' W 122°25'0 0.0
2016-Sep-23 01:33N 37°49' W 122°25'0 0.2
2016-Sep-23 00:33N 37°49' W 122°25'1 1.1
2016-Sep-22 23:33N 37°50' W 122°25'1 0.4
2016-Sep-22 20:33N 37°49' W 122°25'0 0.0
2016-Sep-22 12:30N 37°49' W 122°25'0 0.0
2016-Sep-22 04:31N 37°49' W 122°25'0 0.0
2016-Sep-22 03:27N 37°49' W 122°25'0 0.0
2016-Sep-22 00:33N 37°49' W 122°25'0 0.2
2016-Sep-21 23:33N 37°49' W 122°25'2 2.5
2016-Sep-21 22:34N 37°49' W 122°28'4 1.3
2016-Sep-21 19:34N 37°48' W 122°23'1 0.4
2016-Sep-21 16:33N 37°49' W 122°25'0 0.0
2016-Sep-21 09:33N 37°49' W 122°25'0 0.0
2016-Sep-21 08:33N 37°49' W 122°25'0 0.0
2016-Sep-21 05:33N 37°49' W 122°25'0 0.0
2016-Sep-21 03:33N 37°49' W 122°25'0 0.0
2016-Sep-21 02:33N 37°49' W 122°25'0 0.0
2016-Sep-20 17:33N 37°49' W 122°25'0 0.0
2016-Sep-20 14:33N 37°49' W 122°25'0 0.0
2016-Sep-20 13:33N 37°49' W 122°25'0 0.0
2016-Sep-20 10:33N 37°49' W 122°25'0 0.0
2016-Sep-20 08:33N 37°49' W 122°25'0 0.0
2016-Sep-20 07:33N 37°49' W 122°25'0 0.0
2016-Sep-20 06:33N 37°49' W 122°25'1 0.3
2016-Sep-20 02:34N 37°49' W 122°23'2 0.7
2016-Sep-19 23:33N 37°50' W 122°26'2 0.4
2016-Sep-19 19:32N 37°49' W 122°25'0 0.0
2016-Sep-19 18:31N 37°49' W 122°25'0 0.0
2016-Sep-19 16:30N 37°49' W 122°25'0 0.0
2016-Sep-19 14:28N 37°49' W 122°25'0 0.0
2016-Sep-19 13:28N 37°49' W 122°25'0 0.0
2016-Sep-19 12:21N 37°49' W 122°25'0 0.0
2016-Sep-19 11:33N 37°49' W 122°25'0 0.0
2016-Sep-19 09:32N 37°49' W 122°25'0 0.0
2016-Sep-19 07:28N 37°49' W 122°25'0 0.0
2016-Sep-19 06:31N 37°49' W 122°25'0 0.0
2016-Sep-19 03:30N 37°49' W 122°25'0 0.0
2016-Sep-19 02:32N 37°49' W 122°25'4 2.1
2016-Sep-19 00:34N 37°48' W 122°19'4 0.8
2016-Sep-18 19:29N 37°49' W 122°25'0 0.0
2016-Sep-18 15:30N 37°49' W 122°25'0 0.0
2016-Sep-18 14:32N 37°49' W 122°25'0 0.0
2016-Sep-18 10:33N 37°49' W 122°25'0 0.0
2016-Sep-18 09:33N 37°49' W 122°25'0 0.0
2016-Sep-18 02:32N 37°49' W 122°25'0 0.0
2016-Sep-18 01:31N 37°49' W 122°25'0 0.0
2016-Sep-18 00:30N 37°49' W 122°25'0 0.0
2016-Sep-17 22:26N 37°49' W 122°25'0 0.0
2016-Sep-17 21:28N 37°49' W 122°25'0 0.0
2016-Sep-17 20:32N 37°49' W 122°25'0 0.0
2016-Sep-17 19:16N 37°49' W 122°25'0 0.0
2016-Sep-17 13:29N 37°49' W 122°25'0 0.0
2016-Sep-17 12:30N 37°49' W 122°25'0 0.0
2016-Sep-17 10:26N 37°49' W 122°25'0 0.0
2016-Sep-17 09:31N 37°49' W 122°25'0 0.0
2016-Sep-17 08:32N 37°49' W 122°25'0 0.0
2016-Sep-17 07:29N 37°49' W 122°25'0 0.0
2016-Sep-17 05:33N 37°49' W 122°25'0 0.0
2016-Sep-17 04:32N 37°49' W 122°25'  

Dump ship's entire track history